Aaron F. Barrett — WDB8606 — position and weather

sailwx.info

Track history (hours):
 
Tides and Currents Weather Stations Pressure Air Temp Water Temp Dewpoint Dewpoint Depression Visibility Wind Speed Wind Dir Waves Ship Positions

Aaron F. Barrett

Owner: Ingram Barge Company LLC, Nashville, TN. More information available from US FCC via Universal Licensing System and Coast Guard Vessel Documentation Center.

Last reported at 2018-May-04 08:04 UTC. Time now 2018-Jun-19 20:22 UTC.
Position N 39°09' W 090°43'.
Warning: this ship's position is 46 days out of date.

Length 51 m; draft 9 m.

Type: Towing. MMSI: 366961450.

Date/timePositionNaut miles runAvg speedWind from/ knotsBaromVisibWave heightAir tempDewpointWater temp
2018-May-04 08:04N 39°09' W 090°43'1 5.4
2018-May-04 07:58N 39°09' W 090°43'4 5.3
2018-May-04 07:09N 39°05' W 090°41'1 1.8
2018-May-04 06:47N 39°04' W 090°42'1 5.3
2018-May-04 06:30N 39°03' W 090°43'3 5.1
2018-May-04 06:00N 39°01' W 090°42'1 1.2
2018-May-04 05:30N 39°00' W 090°41'0 0.2
2018-May-04 04:56N 39°00' W 090°41'0 0.3
2018-May-04 04:28N 38°60' W 090°41'1 2.6
2018-May-04 04:00N 38°59' W 090°40'1 2.9
2018-May-04 03:30N 38°57' W 090°40'0 0.0
2018-May-04 03:00N 38°57' W 090°40'0 0.0
2018-May-04 02:29N 38°57' W 090°40'1 2.7
2018-May-04 02:00N 38°56' W 090°40'0 0.3
2018-May-04 01:30N 38°56' W 090°40'0 0.0
2018-May-04 01:00N 38°56' W 090°40'0 0.0
2018-May-04 00:30N 38°56' W 090°40'0 0.0
2018-May-04 00:00N 38°56' W 090°40'0 0.0
2018-May-03 23:30N 38°56' W 090°40'2 4.6
2018-May-03 23:00N 38°54' W 090°38'3 5.5
2018-May-03 22:30N 38°52' W 090°36'3 5.5
2018-May-03 22:00N 38°52' W 090°33'3 5.4
2018-May-03 21:30N 38°55' W 090°31'3 5.1
2018-May-03 21:00N 38°57' W 090°29'1 1.6
2018-May-03 20:30N 38°57' W 090°28'0 0.0
2018-May-03 20:00N 38°57' W 090°28'0 0.0
2018-May-03 19:30N 38°57' W 090°28'1 1.9
2018-May-03 19:00N 38°57' W 090°27'3 5.9
2018-May-03 18:30N 38°57' W 090°23'4 7.2
2018-May-03 18:00N 38°55' W 090°19'3 6.5
2018-May-03 17:30N 38°55' W 090°15'3 5.7
2018-May-03 17:00N 38°54' W 090°12'3 5.6
2018-May-03 16:30N 38°52' W 090°09'0 0.4
2018-May-03 16:00N 38°52' W 090°09'1 2.1
2018-May-03 15:30N 38°51' W 090°08'2 3.1
2018-May-03 15:00N 38°50' W 090°07'2 4.1
2018-May-03 14:30N 38°48' W 090°07'3 5.7
2018-May-03 14:00N 38°45' W 090°08'3 5.2
2018-May-03 13:30N 38°43' W 090°10'1 2.5
2018-May-03 12:58N 38°42' W 090°11'1 2.6
2018-May-03 12:30N 38°41' W 090°11'3 6.0
2018-May-03 11:59N 38°38' W 090°11'3 5.8
2018-May-03 11:29N 38°35' W 090°12'2 3.1
2018-May-03 10:41N 38°33' W 090°14'0 0.0
2018-May-03 10:30N 38°33' W 090°14'0 0.0
2018-May-03 09:41N 38°33' W 090°14'0 0.1
2018-May-03 09:26N 38°33' W 090°14'0 0.0
2018-May-03 08:06N 38°33' W 090°14'0 2.1
2018-May-03 07:52N 38°33' W 090°15'1 0.2
2018-May-03 05:35N 38°32' W 090°15'0 1.0
2018-May-03 05:30N 38°32' W 090°15'1 1.0
2018-May-03 04:33N 38°33' W 090°14'0 0.0
2018-May-03 04:30N 38°33' W 090°14'  
Track history (hours):
 
Tides and Currents Weather Stations Pressure Air Temp Water Temp Dewpoint Dewpoint Depression Visibility Wind Speed Wind Dir Waves Ship Positions

Aaron F. Barrett

Owner: Ingram Barge Company LLC, Nashville, TN. More information available from US FCC via Universal Licensing System and Coast Guard Vessel Documentation Center.

Last reported at 2018-May-04 08:04 UTC. Time now 2018-Jun-19 20:22 UTC.
Position N 39°09' W 090°43'.
Warning: this ship's position is 46 days out of date.

Length 51 m; draft 9 m.

Type: Towing. MMSI: 366961450.

Date/timePositionNaut miles runAvg speedWind from/ knotsBaromVisibWave heightAir tempDewpointWater temp
2018-May-04 08:04N 39°09' W 090°43'1 5.4
2018-May-04 07:58N 39°09' W 090°43'4 5.3
2018-May-04 07:09N 39°05' W 090°41'1 1.8
2018-May-04 06:47N 39°04' W 090°42'1 5.3
2018-May-04 06:30N 39°03' W 090°43'3 5.1
2018-May-04 06:00N 39°01' W 090°42'1 1.2
2018-May-04 05:30N 39°00' W 090°41'0 0.2
2018-May-04 04:56N 39°00' W 090°41'0 0.3
2018-May-04 04:28N 38°60' W 090°41'1 2.6
2018-May-04 04:00N 38°59' W 090°40'1 2.9
2018-May-04 03:30N 38°57' W 090°40'0 0.0
2018-May-04 03:00N 38°57' W 090°40'0 0.0
2018-May-04 02:29N 38°57' W 090°40'1 2.7
2018-May-04 02:00N 38°56' W 090°40'0 0.3
2018-May-04 01:30N 38°56' W 090°40'0 0.0
2018-May-04 01:00N 38°56' W 090°40'0 0.0
2018-May-04 00:30N 38°56' W 090°40'0 0.0
2018-May-04 00:00N 38°56' W 090°40'0 0.0
2018-May-03 23:30N 38°56' W 090°40'2 4.6
2018-May-03 23:00N 38°54' W 090°38'3 5.5
2018-May-03 22:30N 38°52' W 090°36'3 5.5
2018-May-03 22:00N 38°52' W 090°33'3 5.4
2018-May-03 21:30N 38°55' W 090°31'3 5.1
2018-May-03 21:00N 38°57' W 090°29'1 1.6
2018-May-03 20:30N 38°57' W 090°28'0 0.0
2018-May-03 20:00N 38°57' W 090°28'0 0.0
2018-May-03 19:30N 38°57' W 090°28'1 1.9
2018-May-03 19:00N 38°57' W 090°27'3 5.9
2018-May-03 18:30N 38°57' W 090°23'4 7.2
2018-May-03 18:00N 38°55' W 090°19'3 6.5
2018-May-03 17:30N 38°55' W 090°15'3 5.7
2018-May-03 17:00N 38°54' W 090°12'3 5.6
2018-May-03 16:30N 38°52' W 090°09'0 0.4
2018-May-03 16:00N 38°52' W 090°09'1 2.1
2018-May-03 15:30N 38°51' W 090°08'2 3.1
2018-May-03 15:00N 38°50' W 090°07'2 4.1
2018-May-03 14:30N 38°48' W 090°07'3 5.7
2018-May-03 14:00N 38°45' W 090°08'3 5.2
2018-May-03 13:30N 38°43' W 090°10'1 2.5
2018-May-03 12:58N 38°42' W 090°11'1 2.6
2018-May-03 12:30N 38°41' W 090°11'3 6.0
2018-May-03 11:59N 38°38' W 090°11'3 5.8
2018-May-03 11:29N 38°35' W 090°12'2 3.1
2018-May-03 10:41N 38°33' W 090°14'0 0.0
2018-May-03 10:30N 38°33' W 090°14'0 0.0
2018-May-03 09:41N 38°33' W 090°14'0 0.1
2018-May-03 09:26N 38°33' W 090°14'0 0.0
2018-May-03 08:06N 38°33' W 090°14'0 2.1
2018-May-03 07:52N 38°33' W 090°15'1 0.2
2018-May-03 05:35N 38°32' W 090°15'0 1.0
2018-May-03 05:30N 38°32' W 090°15'1 1.0
2018-May-03 04:33N 38°33' W 090°14'0 0.0
2018-May-03 04:30N 38°33' W 090°14'  

Dump ship's entire track history